createdAt,value
2023-01-13T00:01:26.353Z,1.83
2023-01-13T00:03:53.840Z,2.10
2023-01-13T00:06:25.965Z,1.85
2023-01-13T00:08:54.424Z,2.33
2023-01-13T00:11:22.128Z,3.72
2023-01-13T00:13:49.789Z,4.70
2023-01-13T00:16:18.408Z,1.67
2023-01-13T00:18:47.232Z,1.08
2023-01-13T00:21:17.701Z,3.03
2023-01-13T00:23:46.509Z,3.05
2023-01-13T00:26:17.709Z,1.50
2023-01-13T00:28:45.673Z,1.98
2023-01-13T00:31:16.287Z,2.35
2023-01-13T00:33:44.068Z,1.70
2023-01-13T00:36:14.812Z,2.85
2023-01-13T00:38:43.432Z,1.85
2023-01-13T00:41:16.990Z,0.90
2023-01-13T00:43:45.484Z,1.85
2023-01-13T00:46:16.298Z,1.90
2023-01-13T00:48:43.916Z,0.98
2023-01-13T00:51:15.071Z,1.55
2023-01-13T00:53:45.944Z,0.98
2023-01-13T00:56:24.420Z,1.70
2023-01-13T00:58:58.896Z,3.05
2023-01-13T01:01:26.705Z,1.23
2023-01-13T01:03:55.181Z,1.55
2023-01-13T01:06:26.055Z,1.50
2023-01-13T01:08:55.776Z,1.77
2023-01-13T01:11:26.858Z,2.40
2023-01-13T01:13:56.291Z,1.42
2023-01-13T01:16:25.600Z,2.20
2023-01-13T01:18:54.712Z,2.95
2023-01-13T01:21:24.986Z,3.55
2023-01-13T01:23:52.915Z,2.97
2023-01-13T01:26:23.215Z,4.70
2023-01-13T01:28:51.340Z,4.40
2023-01-13T01:31:21.394Z,3.30
2023-01-13T01:33:50.198Z,4.68
2023-01-13T01:36:20.549Z,5.97
2023-01-13T01:38:49.608Z,6.32
2023-01-13T01:41:25.895Z,6.72
2023-01-13T01:44:02.888Z,5.68
2023-01-13T01:46:42.250Z,5.78
2023-01-13T01:49:25.063Z,7.32
2023-01-13T01:51:57.627Z,5.72
2023-01-13T01:54:38.474Z,5.85
2023-01-13T01:57:09.503Z,6.20
2023-01-13T01:59:39.035Z,5.75
2023-01-13T02:02:06.982Z,6.95
2023-01-13T02:04:40.128Z,5.20
2023-01-13T02:07:08.569Z,6.30
2023-01-13T02:09:36.835Z,3.97
2023-01-13T02:12:23.143Z,4.60
2023-01-13T02:14:50.961Z,4.53
2023-01-13T02:17:33.901Z,4.32
2023-01-13T02:20:19.679Z,3.65
2023-01-13T02:23:40.187Z,4.72
2023-01-13T02:26:38.425Z,3.10
2023-01-13T02:29:42.839Z,2.90
2023-01-13T02:32:24.010Z,2.70
2023-01-13T02:35:18.346Z,3.15
2023-01-13T02:37:46.662Z,3.20
2023-01-13T02:40:27.232Z,3.77
2023-01-13T02:43:50.979Z,3.25
2023-01-13T02:46:32.610Z,3.40
2023-01-13T02:49:06.685Z,2.00
2023-01-13T02:51:35.572Z,2.60
2023-01-13T02:56:44.890Z,2.67
2023-01-13T02:59:14.165Z,2.35
2023-01-13T03:01:43.052Z,1.75
2023-01-13T03:04:15.376Z,1.75
2023-01-13T03:07:01.658Z,2.60
2023-01-13T03:09:35.622Z,2.75
2023-01-13T03:12:23.000Z,2.40
2023-01-13T03:15:18.210Z,1.52
2023-01-13T03:18:06.173Z,2.55
2023-01-13T03:20:39.301Z,2.83
2023-01-13T03:23:19.385Z,3.10
2023-01-13T03:26:02.177Z,4.07
2023-01-13T03:28:36.491Z,2.38
2023-01-13T03:31:10.985Z,3.90
2023-01-13T03:33:45.859Z,4.45
2023-01-13T03:36:17.096Z,5.07
2023-01-13T03:38:51.964Z,4.78
2023-01-13T03:41:46.117Z,4.78
2023-01-13T03:44:32.853Z,5.90
2023-01-13T03:47:13.553Z,5.25
2023-01-13T03:49:49.871Z,6.22
2023-01-13T03:52:26.370Z,5.68
2023-01-13T03:55:07.722Z,5.75
2023-01-13T03:57:41.905Z,5.70
2023-01-13T04:00:14.515Z,5.80
2023-01-13T04:02:51.437Z,4.45
2023-01-13T04:05:19.540Z,6.55
2023-01-13T04:07:56.375Z,6.05
2023-01-13T04:10:45.403Z,6.15
2023-01-13T04:13:17.928Z,7.25
2023-01-13T04:15:46.453Z,7.55
2023-01-13T04:18:20.368Z,7.07
2023-01-13T04:20:50.531Z,6.57
2023-01-13T04:23:20.021Z,6.88
2023-01-13T04:25:47.908Z,7.35
2023-01-13T04:28:16.230Z,6.63
2023-01-13T04:30:44.752Z,5.15
2023-01-13T04:33:13.983Z,4.82
2023-01-13T04:35:42.345Z,6.97
2023-01-13T04:38:14.877Z,4.27
2023-01-13T04:40:43.199Z,7.15
2023-01-13T04:43:11.198Z,7.13
2023-01-13T04:45:39.084Z,8.15
2023-01-13T04:48:07.586Z,6.15
2023-01-13T04:50:35.679Z,8.18
2023-01-13T04:53:03.609Z,8.27
2023-01-13T04:55:32.162Z,8.03
2023-01-13T04:58:07.579Z,5.43
2023-01-13T05:00:36.491Z,8.63
2023-01-13T05:03:04.579Z,9.23
2023-01-13T05:05:32.646Z,8.35
2023-01-13T05:08:00.208Z,7.88
2023-01-13T05:10:27.788Z,8.43
2023-01-13T05:13:14.132Z,9.13
2023-01-13T05:16:01.005Z,8.82
2023-01-13T05:18:30.944Z,9.40
2023-01-13T05:20:58.446Z,9.32
2023-01-13T05:23:44.202Z,10.63
2023-01-13T05:26:11.939Z,10.48
2023-01-13T05:28:39.665Z,9.50
2023-01-13T05:31:07.614Z,11.65
2023-01-13T05:33:35.987Z,9.82
2023-01-13T05:36:04.106Z,11.57
2023-01-13T05:38:31.993Z,13.03
2023-01-13T05:41:18.941Z,10.57
2023-01-13T05:43:46.450Z,9.90
2023-01-13T05:46:14.971Z,10.27
2023-01-13T05:48:43.406Z,8.13
2023-01-13T05:51:12.610Z,12.82
2023-01-13T05:56:09.549Z,7.35
2023-01-13T05:58:37.991Z,11.02
2023-01-13T06:01:08.571Z,8.98
2023-01-13T06:03:37.407Z,13.00
2023-01-13T06:06:06.047Z,10.27
2023-01-13T06:08:33.595Z,8.43
2023-01-13T06:11:01.328Z,10.82
2023-01-13T06:13:29.245Z,11.73
2023-01-13T06:15:58.496Z,12.05
2023-01-13T06:18:27.116Z,11.30
2023-01-13T06:20:55.432Z,10.40
2023-01-13T06:23:23.559Z,8.05
2023-01-13T06:25:55.706Z,11.03
2023-01-13T06:28:23.236Z,10.05
2023-01-13T06:30:55.814Z,9.95
2023-01-13T06:33:33.149Z,10.98
2023-01-13T06:36:05.904Z,10.48
2023-01-13T06:38:37.578Z,9.55
2023-01-13T06:41:07.845Z,9.38
2023-01-13T06:43:35.887Z,10.38
2023-01-13T06:46:04.671Z,10.27
2023-01-13T06:48:35.421Z,11.18
2023-01-13T06:51:05.002Z,16.48
2023-01-13T06:53:33.067Z,19.67
2023-01-13T06:56:00.496Z,20.17
2023-01-13T06:58:28.310Z,18.33
2023-01-13T07:01:00.535Z,19.92
2023-01-13T07:03:28.458Z,17.58
2023-01-13T07:05:57.488Z,15.20
2023-01-13T07:08:25.020Z,15.35
2023-01-13T07:10:53.201Z,14.18
2023-01-13T07:13:50.302Z,11.87
2023-01-13T07:16:17.875Z,12.02
2023-01-13T07:18:45.554Z,13.25
2023-01-13T07:21:13.667Z,11.60
2023-01-13T07:23:42.001Z,16.50
2023-01-13T07:26:10.908Z,15.80
2023-01-13T07:31:17.146Z,15.13
2023-01-13T07:33:45.040Z,13.88
2023-01-13T07:36:13.542Z,10.35
2023-01-13T07:38:44.285Z,12.50
2023-01-13T07:41:33.546Z,11.07
2023-01-13T07:44:04.932Z,11.65
2023-01-13T07:46:33.807Z,8.70
2023-01-13T07:51:30.520Z,11.38
2023-01-13T07:53:58.411Z,11.43
2023-01-13T07:56:25.939Z,9.27
2023-01-13T07:58:53.534Z,8.88
2023-01-13T08:01:21.804Z,13.27
2023-01-13T08:03:49.591Z,10.32
2023-01-13T08:06:17.094Z,9.50
2023-01-13T08:08:44.920Z,8.25
2023-01-13T08:11:12.685Z,10.13
2023-01-13T08:13:40.156Z,9.43
2023-01-13T08:16:11.244Z,8.82
2023-01-13T08:18:39.952Z,8.00
2023-01-13T08:21:13.652Z,7.72
2023-01-13T08:23:43.414Z,9.43
2023-01-13T08:26:13.999Z,8.00
2023-01-13T08:28:41.878Z,7.63
2023-01-13T08:31:16.175Z,7.70
2023-01-13T08:33:44.152Z,5.88
2023-01-13T08:36:12.490Z,5.10
2023-01-13T08:38:41.277Z,5.18
2023-01-13T08:41:12.572Z,6.10
2023-01-13T08:43:40.794Z,5.88
2023-01-13T08:46:08.471Z,8.40
2023-01-13T08:48:36.238Z,6.22
2023-01-13T08:51:07.024Z,6.47
2023-01-13T08:53:35.154Z,6.22
2023-01-13T08:56:10.949Z,5.97
2023-01-13T08:58:38.972Z,8.20
2023-01-13T09:01:08.724Z,4.30
2023-01-13T09:03:36.263Z,4.85
2023-01-13T09:06:04.387Z,7.05
2023-01-13T09:08:32.142Z,5.65
2023-01-13T09:10:59.776Z,6.72
2023-01-13T09:13:27.534Z,4.43
2023-01-13T09:15:56.911Z,4.45
2023-01-13T09:18:24.593Z,5.28
2023-01-13T09:20:52.525Z,5.65
2023-01-13T09:23:21.403Z,3.70
2023-01-13T09:25:49.338Z,4.07
2023-01-13T09:28:17.058Z,4.47
2023-01-13T09:30:44.701Z,4.53
2023-01-13T09:33:30.867Z,5.47
2023-01-13T09:35:59.342Z,5.18
2023-01-13T09:38:27.479Z,3.63
2023-01-13T09:40:55.779Z,4.17
2023-01-13T09:43:53.194Z,3.10
2023-01-13T09:46:43.053Z,4.80
2023-01-13T09:49:20.846Z,9.35
2023-01-13T09:52:06.992Z,10.73
2023-01-13T09:54:41.829Z,7.82
2023-01-13T09:57:15.041Z,5.55
2023-01-13T09:59:44.079Z,8.10
2023-01-13T10:02:29.305Z,5.88
2023-01-13T10:05:04.643Z,5.32
2023-01-13T10:07:36.864Z,3.13
2023-01-13T10:10:10.748Z,3.85
2023-01-13T10:12:57.339Z,8.85
2023-01-13T10:15:26.673Z,6.75
2023-01-13T10:18:05.799Z,7.75
2023-01-13T10:20:40.001Z,7.88
2023-01-13T10:23:39.068Z,6.35
2023-01-13T10:26:25.359Z,7.55
2023-01-13T10:28:54.938Z,9.02
2023-01-13T10:31:23.922Z,6.70
2023-01-13T10:34:04.128Z,5.32
2023-01-13T10:36:31.929Z,8.30
2023-01-13T10:39:16.044Z,6.70
2023-01-13T10:41:44.694Z,9.02
2023-01-13T10:44:17.195Z,5.60
2023-01-13T10:46:56.964Z,6.47
2023-01-13T10:49:33.636Z,6.03
2023-01-13T10:52:02.927Z,6.13
2023-01-13T10:54:31.197Z,6.55
2023-01-13T10:57:20.099Z,9.05
2023-01-13T10:59:49.016Z,8.43
2023-01-13T11:02:25.405Z,9.98
2023-01-13T11:04:53.650Z,8.13
2023-01-13T11:07:27.456Z,5.63
2023-01-13T11:10:08.927Z,6.53
2023-01-13T11:13:03.908Z,7.30
2023-01-13T11:15:54.009Z,5.43
2023-01-13T11:19:02.011Z,6.80
2023-01-13T11:21:38.918Z,5.43
2023-01-13T11:24:14.807Z,6.70
2023-01-13T11:26:55.611Z,7.20
2023-01-13T11:29:31.989Z,8.48
2023-01-13T11:32:10.810Z,8.25
2023-01-13T11:34:42.046Z,8.63
2023-01-13T11:37:17.981Z,7.95
2023-01-13T11:39:56.313Z,6.70
2023-01-13T11:42:46.527Z,6.32
2023-01-13T11:45:34.886Z,8.13
2023-01-13T11:48:02.842Z,5.32
2023-01-13T11:50:51.342Z,7.10
2023-01-13T11:53:34.456Z,5.60
2023-01-13T11:56:35.682Z,11.13
2023-01-13T11:59:38.753Z,7.03
2023-01-13T12:02:15.796Z,8.68
2023-01-13T12:05:08.234Z,8.10
2023-01-13T12:08:00.703Z,5.70
2023-01-13T12:10:46.461Z,5.80
2023-01-13T12:13:32.460Z,7.32
2023-01-13T12:16:30.582Z,6.53
2023-01-13T12:19:24.671Z,6.50
2023-01-13T12:22:09.227Z,7.38
2023-01-13T12:24:55.209Z,8.77
2023-01-13T12:27:41.685Z,9.57
2023-01-13T12:30:37.101Z,9.48
2023-01-13T12:33:38.960Z,8.40
2023-01-13T12:36:17.946Z,11.23
2023-01-13T12:38:49.334Z,7.15
2023-01-13T12:41:34.628Z,6.35
2023-01-13T12:44:18.303Z,8.27
2023-01-13T12:46:56.307Z,8.07
2023-01-13T12:49:34.672Z,8.73
2023-01-13T12:52:13.917Z,8.30
2023-01-13T12:57:24.330Z,8.75
2023-01-13T12:59:59.483Z,6.80
2023-01-13T13:02:30.152Z,7.97
2023-01-13T13:05:19.698Z,9.32
2023-01-13T13:08:25.466Z,6.78
2023-01-13T13:11:48.393Z,9.57
2023-01-13T13:14:36.104Z,8.23
2023-01-13T13:17:29.613Z,7.13
2023-01-13T13:19:59.620Z,7.13
2023-01-13T13:22:27.030Z,8.45
2023-01-13T13:24:54.669Z,6.63
2023-01-13T13:27:38.554Z,8.50
2023-01-13T13:30:33.734Z,7.05
2023-01-13T13:33:40.763Z,7.38
2023-01-13T13:36:21.850Z,7.18
2023-01-13T13:39:29.146Z,18.23
2023-01-13T13:42:28.606Z,7.57
2023-01-13T13:45:15.974Z,6.93
2023-01-13T13:47:43.909Z,6.50
2023-01-13T13:50:23.825Z,6.97
2023-01-13T13:53:08.389Z,7.82
2023-01-13T13:55:36.819Z,9.88
2023-01-13T13:58:04.576Z,10.75
2023-01-13T14:00:36.871Z,6.95
2023-01-13T14:03:19.442Z,8.18
2023-01-13T14:06:02.733Z,7.22
2023-01-13T14:08:34.689Z,18.67
2023-01-13T14:11:02.508Z,15.02
2023-01-13T14:13:31.469Z,9.25
2023-01-13T14:16:01.400Z,7.93
2023-01-13T14:18:32.094Z,7.25
2023-01-13T14:21:04.598Z,7.28
2023-01-13T14:23:34.849Z,8.85
2023-01-13T14:26:08.715Z,8.90
2023-01-13T14:28:40.942Z,7.47
2023-01-13T14:31:10.631Z,7.50
2023-01-13T14:33:43.658Z,8.20
2023-01-13T14:36:22.524Z,7.45
2023-01-13T14:39:05.266Z,9.10
2023-01-13T14:41:36.112Z,8.77
2023-01-13T14:44:29.057Z,7.55
2023-01-13T14:47:00.495Z,9.40
2023-01-13T14:49:39.427Z,8.50
2023-01-13T14:54:53.307Z,12.05
2023-01-13T14:57:34.529Z,9.25
2023-01-13T15:00:13.880Z,9.73
2023-01-13T15:02:47.590Z,13.20
2023-01-13T15:05:22.546Z,10.50
2023-01-13T15:07:54.639Z,10.60
2023-01-13T15:10:34.881Z,11.15
2023-01-13T15:13:05.657Z,11.90
2023-01-13T15:15:36.145Z,11.75
2023-01-13T15:18:14.256Z,11.18
2023-01-13T15:20:42.803Z,12.50
2023-01-13T15:23:11.390Z,11.48
2023-01-13T15:25:41.472Z,8.90
2023-01-13T15:28:22.243Z,12.55
2023-01-13T15:30:51.729Z,13.57
2023-01-13T15:35:50.116Z,16.15
2023-01-13T15:38:21.051Z,14.25
2023-01-13T15:40:49.556Z,12.48
2023-01-13T15:43:41.581Z,12.23
2023-01-13T15:46:39.074Z,16.88
2023-01-13T15:49:45.230Z,14.55
2023-01-13T15:52:26.645Z,14.15
2023-01-13T15:54:54.833Z,13.10
2023-01-13T15:57:31.835Z,13.30
2023-01-13T16:00:02.685Z,13.52
2023-01-13T16:02:31.490Z,13.93
2023-01-13T16:04:59.667Z,13.55
2023-01-13T16:07:27.192Z,12.85
2023-01-13T16:09:55.011Z,12.90
2023-01-13T16:12:22.975Z,10.95
2023-01-13T16:14:50.717Z,12.75
2023-01-13T16:17:21.142Z,8.90
2023-01-13T16:19:49.814Z,9.82
2023-01-13T16:22:18.339Z,8.82
2023-01-13T16:24:45.834Z,8.45
2023-01-13T16:27:17.480Z,8.82
2023-01-13T16:29:47.979Z,9.20
2023-01-13T16:32:17.632Z,6.40
2023-01-13T16:34:45.511Z,8.15
2023-01-13T16:37:24.931Z,7.40
2023-01-13T16:39:54.262Z,8.15
2023-01-13T16:42:22.180Z,9.23
2023-01-13T16:44:50.812Z,10.60
2023-01-13T16:47:19.242Z,6.78
2023-01-13T16:49:48.994Z,8.27
2023-01-13T16:52:16.791Z,6.10
2023-01-13T16:54:44.321Z,6.57
2023-01-13T16:57:15.181Z,6.22
2023-01-13T16:59:42.845Z,7.40
2023-01-13T17:02:15.046Z,6.25
2023-01-13T17:04:43.492Z,7.72
2023-01-13T17:07:16.659Z,6.00
2023-01-13T17:09:44.743Z,6.13
2023-01-13T17:12:12.203Z,6.20
2023-01-13T17:14:40.146Z,6.78
2023-01-13T17:17:25.661Z,5.03
2023-01-13T17:19:54.099Z,8.90
2023-01-13T17:22:22.892Z,7.75
2023-01-13T17:24:50.828Z,8.23
2023-01-13T17:27:18.780Z,10.52
2023-01-13T17:29:47.542Z,8.80
2023-01-13T17:32:19.037Z,11.80
2023-01-13T17:34:47.373Z,11.27
2023-01-13T17:37:15.774Z,10.07
2023-01-13T17:39:46.360Z,8.48
2023-01-13T17:42:15.153Z,10.38
2023-01-13T17:44:43.079Z,14.63
2023-01-13T17:47:10.866Z,8.73
2023-01-13T17:49:38.712Z,13.70
2023-01-13T17:52:07.130Z,8.45
2023-01-13T17:54:35.057Z,8.50
2023-01-13T17:57:02.919Z,12.20
2023-01-13T17:59:30.744Z,13.45
2023-01-13T18:01:58.342Z,14.52
2023-01-13T18:04:28.031Z,12.98
2023-01-13T18:06:56.963Z,14.63
2023-01-13T18:09:26.386Z,16.13
2023-01-13T18:11:54.030Z,13.07
2023-01-13T18:14:22.588Z,11.05
2023-01-13T18:16:51.350Z,12.82
2023-01-13T18:19:37.566Z,10.67
2023-01-13T18:22:23.882Z,11.02
2023-01-13T18:25:10.477Z,14.27
2023-01-13T18:27:40.771Z,18.35
2023-01-13T18:30:15.022Z,14.43
2023-01-13T18:35:11.843Z,9.48
2023-01-13T18:37:42.281Z,10.25
2023-01-13T18:40:14.108Z,17.38
2023-01-13T18:42:51.282Z,15.27
2023-01-13T18:45:25.080Z,13.30
2023-01-13T18:47:56.874Z,14.90
2023-01-13T18:50:26.226Z,15.27
2023-01-13T18:52:54.383Z,17.10
2023-01-13T18:55:22.430Z,12.90
2023-01-13T18:57:51.281Z,20.13
2023-01-13T19:00:20.729Z,20.55
2023-01-13T19:05:35.083Z,15.55
2023-01-13T19:10:32.623Z,18.88
2023-01-13T19:13:01.652Z,12.68
2023-01-13T19:15:30.499Z,16.45
2023-01-13T19:17:58.547Z,14.38
2023-01-13T19:20:26.329Z,15.40
2023-01-13T19:22:54.620Z,17.40
2023-01-13T19:25:22.850Z,17.20
2023-01-13T19:27:50.410Z,17.60
2023-01-13T19:30:19.886Z,21.33
2023-01-13T19:32:47.667Z,20.33
2023-01-13T19:35:18.062Z,23.95
2023-01-13T19:37:46.050Z,19.30
2023-01-13T19:40:14.743Z,15.43
2023-01-13T19:43:02.386Z,22.13
2023-01-13T19:45:32.204Z,17.60
2023-01-13T19:48:02.351Z,16.58
2023-01-13T19:50:29.943Z,19.63
2023-01-13T19:52:57.623Z,13.65
2023-01-13T19:55:25.540Z,14.80
2023-01-13T19:57:53.436Z,13.80
2023-01-13T20:00:23.824Z,21.70
2023-01-13T20:02:53.036Z,17.70
2023-01-13T20:05:22.855Z,19.13
2023-01-13T20:07:51.157Z,18.30
2023-01-13T20:10:20.924Z,26.35
2023-01-13T20:12:48.760Z,27.60
2023-01-13T20:15:16.427Z,22.95
2023-01-13T20:17:43.959Z,20.75
2023-01-13T20:20:15.821Z,20.30
2023-01-13T20:22:44.865Z,26.70
2023-01-13T20:25:16.994Z,23.73
2023-01-13T20:27:46.547Z,23.08
2023-01-13T20:32:45.727Z,20.80
2023-01-13T20:35:13.808Z,21.92
2023-01-13T20:37:43.072Z,20.67
2023-01-13T20:40:15.007Z,17.85
2023-01-13T20:42:45.226Z,14.80
2023-01-13T20:45:17.470Z,22.67
2023-01-13T20:47:45.957Z,21.98
2023-01-13T20:50:15.034Z,19.35
2023-01-13T20:52:43.532Z,20.50
2023-01-13T20:55:11.684Z,14.57
2023-01-13T20:57:40.929Z,14.13
2023-01-13T21:00:11.144Z,21.67
2023-01-13T21:02:41.176Z,20.33
2023-01-13T21:05:09.932Z,24.02
2023-01-13T21:07:37.982Z,22.85
2023-01-13T21:10:08.081Z,17.40
2023-01-13T21:15:22.940Z,26.35
2023-01-13T21:18:10.192Z,20.77
2023-01-13T21:20:39.155Z,20.23
2023-01-13T21:25:36.501Z,20.65
2023-01-13T21:28:08.150Z,23.42
2023-01-13T21:30:37.558Z,19.38
2023-01-13T21:38:05.521Z,23.40
2023-01-13T21:40:33.156Z,16.15
2023-01-13T21:43:19.226Z,16.75
2023-01-13T21:46:05.758Z,18.42
2023-01-13T21:48:33.628Z,19.73
2023-01-13T21:51:01.579Z,13.50
2023-01-13T21:53:31.678Z,18.45
2023-01-13T21:55:59.159Z,14.95
2023-01-13T21:58:26.627Z,17.13
2023-01-13T22:00:54.397Z,16.17
2023-01-13T22:03:22.340Z,17.92
2023-01-13T22:05:56.551Z,17.38
2023-01-13T22:08:24.308Z,19.60
2023-01-13T22:10:58.333Z,23.92
2023-01-13T22:13:47.613Z,21.85
2023-01-13T22:16:15.940Z,16.25
2023-01-13T22:18:43.822Z,17.38
2023-01-13T22:21:11.863Z,24.08
2023-01-13T22:23:39.587Z,16.77
2023-01-13T22:26:08.520Z,20.02
2023-01-13T22:28:43.267Z,18.25
2023-01-13T22:31:15.331Z,15.70
2023-01-13T22:33:43.560Z,19.65
2023-01-13T22:36:11.125Z,19.15
2023-01-13T22:38:39.347Z,14.90
2023-01-13T22:41:09.412Z,16.65
2023-01-13T22:43:38.084Z,14.90
2023-01-13T22:46:08.326Z,9.90
2023-01-13T22:48:35.947Z,16.48
2023-01-13T22:51:10.916Z,17.98
2023-01-13T22:53:38.787Z,13.93
2023-01-13T22:56:11.695Z,21.20
2023-01-13T22:58:39.427Z,21.17
2023-01-13T23:01:12.883Z,14.35
2023-01-13T23:03:41.981Z,15.90
2023-01-13T23:08:37.572Z,19.27
2023-01-13T23:11:09.924Z,21.70
2023-01-13T23:13:39.494Z,18.42
2023-01-13T23:18:35.571Z,13.52
2023-01-13T23:21:09.935Z,15.70
2023-01-13T23:23:38.236Z,16.90
2023-01-13T23:26:06.794Z,16.63
2023-01-13T23:28:35.981Z,19.00
2023-01-13T23:31:08.493Z,15.48
2023-01-13T23:33:41.382Z,16.13
2023-01-13T23:36:13.152Z,14.65
2023-01-13T23:38:41.920Z,16.10
2023-01-13T23:41:13.689Z,13.32
2023-01-13T23:43:41.797Z,17.50
2023-01-13T23:46:12.451Z,16.50
2023-01-13T23:48:40.148Z,15.25
2023-01-13T23:51:13.153Z,15.90
2023-01-13T23:53:43.537Z,15.50
2023-01-13T23:56:14.573Z,10.82
2023-01-13T23:58:42.982Z,18.48
